Fulton, Alabama
Current Conditions -  °F | °C
As of 7:53 AM on Monday 26 Jan 2015 (Local Time) from KGZH Reporting Station
Scattered Clouds Scattered Clouds  
Wind Chill: 45°   Ceiling: Unl
Heat Index: 48°   Visibility: 10mi
Dew Point: 35°   Wind: 7mph
Humidity: 61%   Direction: NA
Pressure: 30"   Gusts: NA
Location:  31.79°N, 87.73°W
Report Text: KGZH 261353Z AUTO VRB06KT 10SM SCT033 09/02 A3000 RMK AO2 SLP156 T00890017
Loading
Personal Weather Stations






























Interactive Weather Map New forecast layout! Learn more

10-Day Weather Forecast

Advertisements
Track Severe Weather on mobile